sensor_id;sensor_type;location;lat;lon;timestamp;P1;durP1;ratioP1;P2;durP2;ratioP2
77099;SDS011;66602;48.922;2.414;2023-03-14T00:00:05;12.48;;;2.97;;
77099;SDS011;66602;48.922;2.414;2023-03-14T00:02:39;6.95;;;2.67;;
77099;SDS011;66602;48.922;2.414;2023-03-14T00:05:05;6.88;;;2.42;;
77099;SDS011;66602;48.922;2.414;2023-03-14T00:07:35;8.48;;;2.25;;
77099;SDS011;66602;48.922;2.414;2023-03-14T00:10:06;11.23;;;2.38;;
77099;SDS011;66602;48.922;2.414;2023-03-14T00:12:34;10.35;;;2.65;;
77099;SDS011;66602;48.922;2.414;2023-03-14T00:14:59;13.52;;;2.42;;
77099;SDS011;66602;48.922;2.414;2023-03-14T00:17:27;7.90;;;3.08;;
77099;SDS011;66602;48.922;2.414;2023-03-14T00:19:53;6.28;;;1.75;;
77099;SDS011;66602;48.922;2.414;2023-03-14T00:22:19;6.40;;;1.80;;
77099;SDS011;66602;48.922;2.414;2023-03-14T00:24:45;8.38;;;2.30;;
77099;SDS011;66602;48.922;2.414;2023-03-14T00:27:10;12.57;;;2.95;;
77099;SDS011;66602;48.922;2.414;2023-03-14T00:29:36;5.20;;;2.05;;
77099;SDS011;66602;48.922;2.414;2023-03-14T00:32:01;4.20;;;1.83;;
77099;SDS011;66602;48.922;2.414;2023-03-14T00:34:30;8.60;;;2.50;;
77099;SDS011;66602;48.922;2.414;2023-03-14T00:36:56;7.47;;;1.70;;
77099;SDS011;66602;48.922;2.414;2023-03-14T00:39:22;5.95;;;1.42;;
77099;SDS011;66602;48.922;2.414;2023-03-14T00:41:48;5.50;;;1.70;;
77099;SDS011;66602;48.922;2.414;2023-03-14T00:44:13;2.25;;;1.75;;
77099;SDS011;66602;48.922;2.414;2023-03-14T00:46:39;5.75;;;1.48;;
77099;SDS011;66602;48.922;2.414;2023-03-14T00:49:04;5.75;;;1.30;;
77099;SDS011;66602;48.922;2.414;2023-03-14T00:51:30;4.50;;;1.58;;
77099;SDS011;66602;48.922;2.414;2023-03-14T00:53:56;3.33;;;1.10;;
77099;SDS011;66602;48.922;2.414;2023-03-14T00:56:21;4.68;;;1.88;;
77099;SDS011;66602;48.922;2.414;2023-03-14T00:58:47;6.60;;;1.95;;
77099;SDS011;66602;48.922;2.414;2023-03-14T01:01:13;6.20;;;1.23;;
77099;SDS011;66602;48.922;2.414;2023-03-14T01:03:40;9.57;;;2.30;;
77099;SDS011;66602;48.922;2.414;2023-03-14T01:06:08;5.78;;;1.92;;
77099;SDS011;66602;48.922;2.414;2023-03-14T01:08:41;3.03;;;1.60;;
77099;SDS011;66602;48.922;2.414;2023-03-14T01:11:11;5.45;;;1.50;;
77099;SDS011;66602;48.922;2.414;2023-03-14T01:13:38;4.43;;;1.90;;
77099;SDS011;66602;48.922;2.414;2023-03-14T01:16:04;7.28;;;1.80;;
77099;SDS011;66602;48.922;2.414;2023-03-14T01:18:33;3.28;;;1.73;;
77099;SDS011;66602;48.922;2.414;2023-03-14T01:21:13;7.30;;;2.15;;
77099;SDS011;66602;48.922;2.414;2023-03-14T01:23:41;6.80;;;1.70;;
77099;SDS011;66602;48.922;2.414;2023-03-14T01:26:11;6.13;;;1.90;;
77099;SDS011;66602;48.922;2.414;2023-03-14T01:28:38;4.55;;;1.80;;
77099;SDS011;66602;48.922;2.414;2023-03-14T01:31:07;6.22;;;2.03;;
77099;SDS011;66602;48.922;2.414;2023-03-14T01:33:34;10.48;;;2.13;;
77099;SDS011;66602;48.922;2.414;2023-03-14T01:36:00;8.75;;;1.92;;
77099;SDS011;66602;48.922;2.414;2023-03-14T01:38:30;4.45;;;1.80;;
77099;SDS011;66602;48.922;2.414;2023-03-14T01:40:57;7.13;;;2.10;;
77099;SDS011;66602;48.922;2.414;2023-03-14T01:43:23;11.25;;;2.15;;
77099;SDS011;66602;48.922;2.414;2023-03-14T01:48:35;6.28;;;1.95;;
77099;SDS011;66602;48.922;2.414;2023-03-14T01:51:04;3.97;;;1.80;;
77099;SDS011;66602;48.922;2.414;2023-03-14T01:53:36;11.07;;;2.63;;
77099;SDS011;66602;48.922;2.414;2023-03-14T01:56:03;4.18;;;1.85;;
77099;SDS011;66602;48.922;2.414;2023-03-14T01:58:30;7.85;;;2.08;;
77099;SDS011;66602;48.922;2.414;2023-03-14T02:01:02;8.23;;;2.17;;
77099;SDS011;66602;48.922;2.414;2023-03-14T02:03:29;3.40;;;1.65;;
77099;SDS011;66602;48.922;2.414;2023-03-14T02:05:59;5.57;;;1.63;;
77099;SDS011;66602;48.922;2.414;2023-03-14T02:08:29;6.32;;;2.03;;
77099;SDS011;66602;48.922;2.414;2023-03-14T02:10:56;4.18;;;1.55;;
77099;SDS011;66602;48.922;2.414;2023-03-14T02:13:22;4.43;;;1.25;;
77099;SDS011;66602;48.922;2.414;2023-03-14T02:15:48;7.18;;;1.80;;
77099;SDS011;66602;48.922;2.414;2023-03-14T02:18:14;8.48;;;1.60;;
77099;SDS011;66602;48.922;2.414;2023-03-14T02:26:15;2.35;;;1.38;;
77099;SDS011;66602;48.922;2.414;2023-03-14T02:28:46;2.83;;;0.90;;
77099;SDS011;66602;48.922;2.414;2023-03-14T02:31:13;3.05;;;0.95;;
77099;SDS011;66602;48.922;2.414;2023-03-14T02:33:39;2.17;;;1.00;;
77099;SDS011;66602;48.922;2.414;2023-03-14T02:36:05;4.88;;;1.33;;
77099;SDS011;66602;48.922;2.414;2023-03-14T02:41:32;1.23;;;0.90;;
77099;SDS011;66602;48.922;2.414;2023-03-14T02:43:57;1.10;;;0.85;;
77099;SDS011;66602;48.922;2.414;2023-03-14T02:46:23;3.25;;;0.73;;
77099;SDS011;66602;48.922;2.414;2023-03-14T02:48:53;4.65;;;1.25;;
77099;SDS011;66602;48.922;2.414;2023-03-14T02:51:26;3.58;;;1.02;;
77099;SDS011;66602;48.922;2.414;2023-03-14T02:53:53;0.93;;;0.93;;
77099;SDS011;66602;48.922;2.414;2023-03-14T02:56:19;2.97;;;0.73;;
77099;SDS011;66602;48.922;2.414;2023-03-14T02:58:44;4.30;;;1.05;;
77099;SDS011;66602;48.922;2.414;2023-03-14T03:01:10;2.95;;;1.00;;
77099;SDS011;66602;48.922;2.414;2023-03-14T03:03:35;1.13;;;0.93;;
77099;SDS011;66602;48.922;2.414;2023-03-14T03:06:01;2.38;;;0.80;;
77099;SDS011;66602;48.922;2.414;2023-03-14T03:08:27;3.83;;;1.08;;
77099;SDS011;66602;48.922;2.414;2023-03-14T03:10:53;2.67;;;0.93;;
77099;SDS011;66602;48.922;2.414;2023-03-14T03:13:19;3.25;;;0.75;;
77099;SDS011;66602;48.922;2.414;2023-03-14T03:15:45;1.40;;;0.90;;
77099;SDS011;66602;48.922;2.414;2023-03-14T03:18:11;2.28;;;1.30;;
77099;SDS011;66602;48.922;2.414;2023-03-14T03:20:37;0.88;;;0.88;;
77099;SDS011;66602;48.922;2.414;2023-03-14T03:23:03;2.85;;;0.70;;
77099;SDS011;66602;48.922;2.414;2023-03-14T03:25:29;2.17;;;0.95;;
77099;SDS011;66602;48.922;2.414;2023-03-14T03:27:55;2.67;;;0.80;;
77099;SDS011;66602;48.922;2.414;2023-03-14T03:30:21;0.80;;;0.60;;
77099;SDS011;66602;48.922;2.414;2023-03-14T03:32:46;3.22;;;1.23;;
77099;SDS011;66602;48.922;2.414;2023-03-14T03:35:12;1.45;;;0.80;;
77099;SDS011;66602;48.922;2.414;2023-03-14T03:37:38;4.43;;;0.80;;
77099;SDS011;66602;48.922;2.414;2023-03-14T03:40:04;2.88;;;1.20;;
77099;SDS011;66602;48.922;2.414;2023-03-14T03:42:31;1.05;;;0.70;;
77099;SDS011;66602;48.922;2.414;2023-03-14T03:44:57;1.83;;;0.80;;
77099;SDS011;66602;48.922;2.414;2023-03-14T03:47:24;3.83;;;0.60;;
77099;SDS011;66602;48.922;2.414;2023-03-14T03:49:49;0.95;;;0.70;;
77099;SDS011;66602;48.922;2.414;2023-03-14T03:52:15;1.58;;;0.60;;
77099;SDS011;66602;48.922;2.414;2023-03-14T03:54:40;4.25;;;1.38;;
77099;SDS011;66602;48.922;2.414;2023-03-14T03:57:05;1.27;;;0.73;;
77099;SDS011;66602;48.922;2.414;2023-03-14T03:59:31;0.95;;;0.82;;
77099;SDS011;66602;48.922;2.414;2023-03-14T04:01:57;1.48;;;0.73;;
77099;SDS011;66602;48.922;2.414;2023-03-14T04:04:22;1.38;;;0.90;;
77099;SDS011;66602;48.922;2.414;2023-03-14T04:06:48;1.35;;;0.93;;
77099;SDS011;66602;48.922;2.414;2023-03-14T04:09:13;2.25;;;1.02;;
77099;SDS011;66602;48.922;2.414;2023-03-14T04:11:39;0.60;;;0.60;;
77099;SDS011;66602;48.922;2.414;2023-03-14T04:14:04;0.65;;;0.63;;
77099;SDS011;66602;48.922;2.414;2023-03-14T04:16:30;1.48;;;0.60;;
77099;SDS011;66602;48.922;2.414;2023-03-14T04:18:59;0.93;;;0.63;;
77099;SDS011;66602;48.922;2.414;2023-03-14T04:21:25;1.17;;;0.80;;
77099;SDS011;66602;48.922;2.414;2023-03-14T04:23:50;1.17;;;0.50;;
77099;SDS011;66602;48.922;2.414;2023-03-14T04:26:16;2.15;;;0.80;;
77099;SDS011;66602;48.922;2.414;2023-03-14T04:28:42;1.10;;;0.57;;
77099;SDS011;66602;48.922;2.414;2023-03-14T04:31:11;0.50;;;0.50;;
77099;SDS011;66602;48.922;2.414;2023-03-14T04:33:41;0.32;;;0.32;;
77099;SDS011;66602;48.922;2.414;2023-03-14T04:36:08;1.05;;;0.85;;
77099;SDS011;66602;48.922;2.414;2023-03-14T04:38:34;1.20;;;0.40;;
77099;SDS011;66602;48.922;2.414;2023-03-14T04:41:00;0.52;;;0.40;;
77099;SDS011;66602;48.922;2.414;2023-03-14T04:43:26;0.85;;;0.70;;
77099;SDS011;66602;48.922;2.414;2023-03-14T04:45:56;0.63;;;0.47;;
77099;SDS011;66602;48.922;2.414;2023-03-14T04:48:23;1.65;;;0.50;;
77099;SDS011;66602;48.922;2.414;2023-03-14T04:50:49;0.50;;;0.50;;
77099;SDS011;66602;48.922;2.414;2023-03-14T04:53:15;0.93;;;0.60;;
77099;SDS011;66602;48.922;2.414;2023-03-14T04:55:41;0.60;;;0.50;;
77099;SDS011;66602;48.922;2.414;2023-03-14T04:58:08;1.42;;;0.60;;
77099;SDS011;66602;48.922;2.414;2023-03-14T05:00:34;0.60;;;0.60;;
77099;SDS011;66602;48.922;2.414;2023-03-14T05:02:59;0.75;;;0.60;;
77099;SDS011;66602;48.922;2.414;2023-03-14T05:05:25;0.80;;;0.80;;
77099;SDS011;66602;48.922;2.414;2023-03-14T05:07:50;4.25;;;1.60;;
77099;SDS011;66602;48.922;2.414;2023-03-14T05:10:16;3.70;;;1.15;;
77099;SDS011;66602;48.922;2.414;2023-03-14T05:12:41;2.88;;;1.58;;
77099;SDS011;66602;48.922;2.414;2023-03-14T05:15:07;10.90;;;2.00;;
77099;SDS011;66602;48.922;2.414;2023-03-14T05:17:33;13.40;;;2.22;;
77099;SDS011;66602;48.922;2.414;2023-03-14T05:19:59;11.80;;;2.20;;
77099;SDS011;66602;48.922;2.414;2023-03-14T05:22:24;9.63;;;2.05;;
77099;SDS011;66602;48.922;2.414;2023-03-14T05:24:50;7.18;;;2.15;;
77099;SDS011;66602;48.922;2.414;2023-03-14T05:27:16;12.48;;;2.15;;
77099;SDS011;66602;48.922;2.414;2023-03-14T05:29:41;14.35;;;2.85;;
77099;SDS011;66602;48.922;2.414;2023-03-14T05:32:06;7.75;;;3.05;;
77099;SDS011;66602;48.922;2.414;2023-03-14T05:34:32;7.38;;;2.88;;
77099;SDS011;66602;48.922;2.414;2023-03-14T05:36:58;7.50;;;2.80;;
77099;SDS011;66602;48.922;2.414;2023-03-14T05:39:23;7.53;;;3.03;;
77099;SDS011;66602;48.922;2.414;2023-03-14T05:41:51;17.08;;;3.63;;
77099;SDS011;66602;48.922;2.414;2023-03-14T05:44:18;13.07;;;3.13;;
77099;SDS011;66602;48.922;2.414;2023-03-14T05:46:44;6.20;;;2.63;;
77099;SDS011;66602;48.922;2.414;2023-03-14T05:49:09;5.90;;;2.83;;
77099;SDS011;66602;48.922;2.414;2023-03-14T05:51:35;11.15;;;2.63;;
77099;SDS011;66602;48.922;2.414;2023-03-14T05:54:00;11.02;;;3.33;;
77099;SDS011;66602;48.922;2.414;2023-03-14T05:56:26;6.63;;;2.70;;
77099;SDS011;66602;48.922;2.414;2023-03-14T05:58:52;9.52;;;3.08;;
77099;SDS011;66602;48.922;2.414;2023-03-14T06:01:17;6.18;;;2.72;;
77099;SDS011;66602;48.922;2.414;2023-03-14T06:03:43;9.07;;;2.50;;
77099;SDS011;66602;48.922;2.414;2023-03-14T06:06:08;16.60;;;3.03;;
77099;SDS011;66602;48.922;2.414;2023-03-14T06:08:34;7.93;;;2.05;;
77099;SDS011;66602;48.922;2.414;2023-03-14T06:10:59;8.32;;;2.50;;
77099;SDS011;66602;48.922;2.414;2023-03-14T06:13:27;8.38;;;2.10;;
77099;SDS011;66602;48.922;2.414;2023-03-14T06:15:52;15.52;;;3.67;;
77099;SDS011;66602;48.922;2.414;2023-03-14T06:18:18;4.60;;;2.47;;
77099;SDS011;66602;48.922;2.414;2023-03-14T06:20:43;9.60;;;2.22;;
77099;SDS011;66602;48.922;2.414;2023-03-14T06:23:09;7.85;;;2.38;;
77099;SDS011;66602;48.922;2.414;2023-03-14T06:25:35;6.75;;;2.15;;
77099;SDS011;66602;48.922;2.414;2023-03-14T06:28:01;8.57;;;2.20;;
77099;SDS011;66602;48.922;2.414;2023-03-14T06:30:27;9.52;;;2.58;;
77099;SDS011;66602;48.922;2.414;2023-03-14T06:32:53;8.25;;;2.22;;
77099;SDS011;66602;48.922;2.414;2023-03-14T06:35:18;7.63;;;2.47;;
77099;SDS011;66602;48.922;2.414;2023-03-14T06:37:44;10.40;;;3.28;;
77099;SDS011;66602;48.922;2.414;2023-03-14T06:40:10;13.07;;;2.35;;
77099;SDS011;66602;48.922;2.414;2023-03-14T06:42:37;6.18;;;2.22;;
77099;SDS011;66602;48.922;2.414;2023-03-14T06:45:03;6.07;;;2.03;;
77099;SDS011;66602;48.922;2.414;2023-03-14T06:47:29;11.38;;;3.30;;
77099;SDS011;66602;48.922;2.414;2023-03-14T06:49:54;15.27;;;3.45;;
77099;SDS011;66602;48.922;2.414;2023-03-14T06:52:20;16.27;;;2.78;;
77099;SDS011;66602;48.922;2.414;2023-03-14T06:54:45;4.35;;;1.98;;
77099;SDS011;66602;48.922;2.414;2023-03-14T06:57:11;5.95;;;3.00;;
77099;SDS011;66602;48.922;2.414;2023-03-14T06:59:36;11.20;;;2.78;;
77099;SDS011;66602;48.922;2.414;2023-03-14T07:02:01;7.13;;;2.85;;
77099;SDS011;66602;48.922;2.414;2023-03-14T07:04:27;7.78;;;2.85;;
77099;SDS011;66602;48.922;2.414;2023-03-14T07:06:52;9.38;;;5.55;;
77099;SDS011;66602;48.922;2.414;2023-03-14T07:09:18;10.95;;;3.70;;
77099;SDS011;66602;48.922;2.414;2023-03-14T07:11:43;11.88;;;3.63;;
77099;SDS011;66602;48.922;2.414;2023-03-14T07:14:09;12.02;;;5.85;;
77099;SDS011;66602;48.922;2.414;2023-03-14T07:16:34;24.10;;;10.15;;
77099;SDS011;66602;48.922;2.414;2023-03-14T07:19:00;7.13;;;2.42;;
77099;SDS011;66602;48.922;2.414;2023-03-14T07:21:27;8.90;;;2.50;;
77099;SDS011;66602;48.922;2.414;2023-03-14T07:23:53;5.75;;;2.10;;
77099;SDS011;66602;48.922;2.414;2023-03-14T07:26:18;7.35;;;3.08;;
77099;SDS011;66602;48.922;2.414;2023-03-14T07:28:44;9.65;;;2.70;;
77099;SDS011;66602;48.922;2.414;2023-03-14T07:31:09;9.63;;;2.85;;
77099;SDS011;66602;48.922;2.414;2023-03-14T07:33:35;4.30;;;1.98;;
77099;SDS011;66602;48.922;2.414;2023-03-14T07:36:01;7.60;;;2.45;;
77099;SDS011;66602;48.922;2.414;2023-03-14T07:38:28;9.20;;;2.53;;
77099;SDS011;66602;48.922;2.414;2023-03-14T07:40:57;17.83;;;2.40;;
77099;SDS011;66602;48.922;2.414;2023-03-14T07:43:24;5.00;;;2.13;;
77099;SDS011;66602;48.922;2.414;2023-03-14T07:45:50;18.05;;;2.65;;
77099;SDS011;66602;48.922;2.414;2023-03-14T07:48:15;7.30;;;2.47;;
77099;SDS011;66602;48.922;2.414;2023-03-14T07:50:41;5.88;;;2.38;;
77099;SDS011;66602;48.922;2.414;2023-03-14T07:53:06;5.93;;;2.00;;
77099;SDS011;66602;48.922;2.414;2023-03-14T07:55:32;14.98;;;3.17;;
77099;SDS011;66602;48.922;2.414;2023-03-14T07:57:58;11.25;;;2.45;;
77099;SDS011;66602;48.922;2.414;2023-03-14T08:00:24;8.98;;;2.47;;
77099;SDS011;66602;48.922;2.414;2023-03-14T08:02:50;7.50;;;1.88;;
77099;SDS011;66602;48.922;2.414;2023-03-14T08:05:15;14.00;;;2.88;;
77099;SDS011;66602;48.922;2.414;2023-03-14T08:07:41;10.25;;;2.80;;
77099;SDS011;66602;48.922;2.414;2023-03-14T08:10:08;11.55;;;2.65;;
77099;SDS011;66602;48.922;2.414;2023-03-14T08:12:34;15.10;;;3.40;;
77099;SDS011;66602;48.922;2.414;2023-03-14T08:14:59;9.30;;;3.42;;
77099;SDS011;66602;48.922;2.414;2023-03-14T08:17:25;5.28;;;2.13;;
77099;SDS011;66602;48.922;2.414;2023-03-14T08:19:51;4.70;;;1.98;;
77099;SDS011;66602;48.922;2.414;2023-03-14T08:22:17;10.95;;;2.60;;
77099;SDS011;66602;48.922;2.414;2023-03-14T08:24:42;6.88;;;2.00;;
77099;SDS011;66602;48.922;2.414;2023-03-14T08:27:10;17.73;;;2.65;;
77099;SDS011;66602;48.922;2.414;2023-03-14T08:29:35;10.32;;;2.78;;
77099;SDS011;66602;48.922;2.414;2023-03-14T08:32:06;5.60;;;2.10;;
77099;SDS011;66602;48.922;2.414;2023-03-14T08:34:32;19.15;;;3.13;;
77099;SDS011;66602;48.922;2.414;2023-03-14T08:36:59;6.68;;;1.90;;
77099;SDS011;66602;48.922;2.414;2023-03-14T08:39:24;8.43;;;2.53;;
77099;SDS011;66602;48.922;2.414;2023-03-14T08:41:49;5.43;;;1.90;;
77099;SDS011;66602;48.922;2.414;2023-03-14T08:44:15;6.97;;;2.03;;
77099;SDS011;66602;48.922;2.414;2023-03-14T08:46:40;7.10;;;2.35;;
77099;SDS011;66602;48.922;2.414;2023-03-14T08:49:06;10.63;;;2.28;;
77099;SDS011;66602;48.922;2.414;2023-03-14T08:51:31;9.20;;;2.35;;
77099;SDS011;66602;48.922;2.414;2023-03-14T08:53:57;10.45;;;2.47;;
77099;SDS011;66602;48.922;2.414;2023-03-14T08:56:22;7.05;;;2.35;;
77099;SDS011;66602;48.922;2.414;2023-03-14T08:58:48;13.90;;;2.53;;
77099;SDS011;66602;48.922;2.414;2023-03-14T09:01:13;5.18;;;1.98;;
77099;SDS011;66602;48.922;2.414;2023-03-14T09:03:39;7.88;;;2.05;;
77099;SDS011;66602;48.922;2.414;2023-03-14T09:06:05;11.00;;;2.35;;
77099;SDS011;66602;48.922;2.414;2023-03-14T09:08:32;6.20;;;2.78;;
77099;SDS011;66602;48.922;2.414;2023-03-14T09:10:58;10.30;;;2.63;;
77099;SDS011;66602;48.922;2.414;2023-03-14T09:13:24;9.55;;;2.55;;
77099;SDS011;66602;48.922;2.414;2023-03-14T09:15:50;13.55;;;3.47;;
77099;SDS011;66602;48.922;2.414;2023-03-14T09:18:19;8.13;;;2.58;;
77099;SDS011;66602;48.922;2.414;2023-03-14T09:20:45;4.93;;;2.42;;
77099;SDS011;66602;48.922;2.414;2023-03-14T09:23:11;11.02;;;2.00;;
77099;SDS011;66602;48.922;2.414;2023-03-14T09:25:37;5.95;;;1.52;;
77099;SDS011;66602;48.922;2.414;2023-03-14T09:28:03;4.95;;;1.80;;
77099;SDS011;66602;48.922;2.414;2023-03-14T09:30:29;11.38;;;2.38;;
77099;SDS011;66602;48.922;2.414;2023-03-14T09:32:54;5.35;;;1.80;;
77099;SDS011;66602;48.922;2.414;2023-03-14T09:35:20;17.38;;;3.45;;
77099;SDS011;66602;48.922;2.414;2023-03-14T09:37:45;6.35;;;1.80;;
77099;SDS011;66602;48.922;2.414;2023-03-14T09:40:15;10.05;;;2.30;;
77099;SDS011;66602;48.922;2.414;2023-03-14T09:42:41;5.07;;;1.75;;
77099;SDS011;66602;48.922;2.414;2023-03-14T09:45:11;6.93;;;1.70;;
77099;SDS011;66602;48.922;2.414;2023-03-14T09:47:42;2.85;;;1.73;;
77099;SDS011;66602;48.922;2.414;2023-03-14T09:50:15;10.05;;;2.10;;
77099;SDS011;66602;48.922;2.414;2023-03-14T09:52:42;5.45;;;1.45;;
77099;SDS011;66602;48.922;2.414;2023-03-14T09:55:17;11.77;;;2.65;;
77099;SDS011;66602;48.922;2.414;2023-03-14T09:57:46;6.18;;;1.73;;
77099;SDS011;66602;48.922;2.414;2023-03-14T10:00:15;5.15;;;1.80;;
77099;SDS011;66602;48.922;2.414;2023-03-14T10:02:43;6.57;;;1.42;;
77099;SDS011;66602;48.922;2.414;2023-03-14T10:05:22;3.33;;;1.58;;
77099;SDS011;66602;48.922;2.414;2023-03-14T10:07:49;7.68;;;1.17;;
77099;SDS011;66602;48.922;2.414;2023-03-14T10:10:23;3.47;;;1.15;;
77099;SDS011;66602;48.922;2.414;2023-03-14T10:12:57;5.32;;;1.33;;
77099;SDS011;66602;48.922;2.414;2023-03-14T10:15:30;2.55;;;1.13;;
77099;SDS011;66602;48.922;2.414;2023-03-14T10:17:58;3.85;;;1.45;;
77099;SDS011;66602;48.922;2.414;2023-03-14T10:20:27;3.50;;;1.63;;
77099;SDS011;66602;48.922;2.414;2023-03-14T10:23:01;5.95;;;1.92;;
77099;SDS011;66602;48.922;2.414;2023-03-14T10:25:30;10.18;;;1.70;;
77099;SDS011;66602;48.922;2.414;2023-03-14T10:27:58;8.20;;;1.80;;
77099;SDS011;66602;48.922;2.414;2023-03-14T10:30:28;2.47;;;1.67;;
77099;SDS011;66602;48.922;2.414;2023-03-14T10:33:10;4.88;;;1.88;;
77099;SDS011;66602;48.922;2.414;2023-03-14T10:35:43;7.10;;;2.28;;
77099;SDS011;66602;48.922;2.414;2023-03-14T10:38:14;4.55;;;1.70;;
77099;SDS011;66602;48.922;2.414;2023-03-14T10:40:49;7.40;;;2.30;;
77099;SDS011;66602;48.922;2.414;2023-03-14T10:43:19;4.55;;;2.17;;
77099;SDS011;66602;48.922;2.414;2023-03-14T10:46:12;3.30;;;2.00;;
77099;SDS011;66602;48.922;2.414;2023-03-14T10:48:42;4.65;;;1.65;;
77099;SDS011;66602;48.922;2.414;2023-03-14T10:51:17;4.20;;;2.03;;
77099;SDS011;66602;48.922;2.414;2023-03-14T10:56:26;5.82;;;2.60;;
77099;SDS011;66602;48.922;2.414;2023-03-14T10:58:57;4.53;;;1.95;;
77099;SDS011;66602;48.922;2.414;2023-03-14T11:13:03;2.17;;;1.67;;
77099;SDS011;66602;48.922;2.414;2023-03-14T11:23:20;5.00;;;1.75;;
77099;SDS011;66602;48.922;2.414;2023-03-14T11:25:59;4.13;;;1.83;;
77099;SDS011;66602;48.922;2.414;2023-03-14T11:28:39;4.00;;;2.00;;
77099;SDS011;66602;48.922;2.414;2023-03-14T11:38:58;5.35;;;1.67;;
77099;SDS011;66602;48.922;2.414;2023-03-14T11:41:32;2.55;;;1.40;;
77099;SDS011;66602;48.922;2.414;2023-03-14T11:44:03;4.75;;;2.00;;
77099;SDS011;66602;48.922;2.414;2023-03-14T11:46:39;3.58;;;1.52;;
77099;SDS011;66602;48.922;2.414;2023-03-14T11:49:30;6.20;;;1.67;;
77099;SDS011;66602;48.922;2.414;2023-03-14T11:52:08;6.13;;;1.52;;
77099;SDS011;66602;48.922;2.414;2023-03-14T11:54:46;6.85;;;1.95;;
77099;SDS011;66602;48.922;2.414;2023-03-14T11:57:17;3.25;;;1.40;;
77099;SDS011;66602;48.922;2.414;2023-03-14T12:00:02;3.85;;;1.70;;
77099;SDS011;66602;48.922;2.414;2023-03-14T12:02:48;8.05;;;1.88;;
77099;SDS011;66602;48.922;2.414;2023-03-14T12:05:28;5.60;;;1.88;;
77099;SDS011;66602;48.922;2.414;2023-03-14T12:13:32;4.65;;;1.58;;
77099;SDS011;66602;48.922;2.414;2023-03-14T12:16:03;5.63;;;1.77;;
77099;SDS011;66602;48.922;2.414;2023-03-14T12:21:10;3.10;;;1.30;;
77099;SDS011;66602;48.922;2.414;2023-03-14T12:23:50;5.07;;;1.88;;
77099;SDS011;66602;48.922;2.414;2023-03-14T12:26:19;4.20;;;1.65;;
77099;SDS011;66602;48.922;2.414;2023-03-14T12:28:50;2.70;;;1.42;;
77099;SDS011;66602;48.922;2.414;2023-03-14T12:39:58;3.30;;;1.70;;
77099;SDS011;66602;48.922;2.414;2023-03-14T12:42:57;4.53;;;1.25;;
77099;SDS011;66602;48.922;2.414;2023-03-14T12:45:25;10.23;;;2.10;;
77099;SDS011;66602;48.922;2.414;2023-03-14T12:47:54;8.10;;;1.90;;
77099;SDS011;66602;48.922;2.414;2023-03-14T12:50:26;7.80;;;1.98;;
77099;SDS011;66602;48.922;2.414;2023-03-14T12:53:32;4.53;;;1.50;;
77099;SDS011;66602;48.922;2.414;2023-03-14T12:56:24;11.68;;;2.30;;
77099;SDS011;66602;48.922;2.414;2023-03-14T13:02:23;2.73;;;1.77;;
77099;SDS011;66602;48.922;2.414;2023-03-14T13:04:59;3.83;;;1.90;;
77099;SDS011;66602;48.922;2.414;2023-03-14T13:07:30;1.88;;;1.63;;
77099;SDS011;66602;48.922;2.414;2023-03-14T13:12:29;5.25;;;1.50;;
77099;SDS011;66602;48.922;2.414;2023-03-14T13:15:00;8.35;;;1.02;;
77099;SDS011;66602;48.922;2.414;2023-03-14T13:17:30;5.20;;;1.35;;
77099;SDS011;66602;48.922;2.414;2023-03-14T13:20:00;5.78;;;1.23;;
77099;SDS011;66602;48.922;2.414;2023-03-14T13:22:34;10.02;;;1.92;;
77099;SDS011;66602;48.922;2.414;2023-03-14T13:25:03;7.55;;;1.48;;
77099;SDS011;66602;48.922;2.414;2023-03-14T13:27:34;5.70;;;1.55;;
77099;SDS011;66602;48.922;2.414;2023-03-14T13:30:17;3.70;;;2.00;;
77099;SDS011;66602;48.922;2.414;2023-03-14T13:32:46;6.45;;;1.90;;
77099;SDS011;66602;48.922;2.414;2023-03-14T13:35:14;3.35;;;1.70;;
77099;SDS011;66602;48.922;2.414;2023-03-14T13:37:42;6.85;;;1.83;;
77099;SDS011;66602;48.922;2.414;2023-03-14T13:40:17;3.55;;;1.70;;
77099;SDS011;66602;48.922;2.414;2023-03-14T13:42:44;6.95;;;1.85;;
77099;SDS011;66602;48.922;2.414;2023-03-14T13:45:12;8.93;;;2.08;;
77099;SDS011;66602;48.922;2.414;2023-03-14T13:47:38;4.47;;;1.88;;
77099;SDS011;66602;48.922;2.414;2023-03-14T13:50:04;9.88;;;2.22;;
77099;SDS011;66602;48.922;2.414;2023-03-14T13:52:31;5.57;;;2.90;;
77099;SDS011;66602;48.922;2.414;2023-03-14T13:55:00;3.53;;;1.58;;
77099;SDS011;66602;48.922;2.414;2023-03-14T13:57:28;5.28;;;1.73;;
77099;SDS011;66602;48.922;2.414;2023-03-14T14:00:16;4.85;;;2.35;;
77099;SDS011;66602;48.922;2.414;2023-03-14T14:02:46;2.47;;;1.85;;
77099;SDS011;66602;48.922;2.414;2023-03-14T14:05:13;2.58;;;1.10;;
77099;SDS011;66602;48.922;2.414;2023-03-14T14:07:39;2.30;;;1.80;;
77099;SDS011;66602;48.922;2.414;2023-03-14T14:10:09;5.15;;;1.20;;
77099;SDS011;66602;48.922;2.414;2023-03-14T14:12:42;1.42;;;1.00;;
77099;SDS011;66602;48.922;2.414;2023-03-14T14:15:17;3.85;;;1.55;;
77099;SDS011;66602;48.922;2.414;2023-03-14T14:17:53;5.47;;;1.52;;
77099;SDS011;66602;48.922;2.414;2023-03-14T14:20:23;1.67;;;1.25;;
77099;SDS011;66602;48.922;2.414;2023-03-14T14:22:57;2.22;;;1.27;;
77099;SDS011;66602;48.922;2.414;2023-03-14T14:25:24;5.13;;;1.88;;
77099;SDS011;66602;48.922;2.414;2023-03-14T14:27:50;2.60;;;1.50;;
77099;SDS011;66602;48.922;2.414;2023-03-14T14:32:48;1.25;;;1.20;;
77099;SDS011;66602;48.922;2.414;2023-03-14T14:35:31;2.67;;;1.38;;
77099;SDS011;66602;48.922;2.414;2023-03-14T14:37:58;4.65;;;1.42;;
77099;SDS011;66602;48.922;2.414;2023-03-14T14:40:25;3.22;;;1.73;;
77099;SDS011;66602;48.922;2.414;2023-03-14T14:43:01;1.92;;;1.00;;
77099;SDS011;66602;48.922;2.414;2023-03-14T14:45:28;1.20;;;0.52;;
77099;SDS011;66602;48.922;2.414;2023-03-14T14:47:55;1.20;;;0.98;;
77099;SDS011;66602;48.922;2.414;2023-03-14T14:50:36;1.33;;;1.00;;
77099;SDS011;66602;48.922;2.414;2023-03-14T14:53:27;2.15;;;0.80;;
77099;SDS011;66602;48.922;2.414;2023-03-14T14:55:56;1.17;;;0.80;;
77099;SDS011;66602;48.922;2.414;2023-03-14T14:58:27;1.10;;;0.80;;
77099;SDS011;66602;48.922;2.414;2023-03-14T15:03:41;1.33;;;0.80;;
77099;SDS011;66602;48.922;2.414;2023-03-14T15:06:08;1.23;;;0.65;;
77099;SDS011;66602;48.922;2.414;2023-03-14T15:08:36;1.75;;;1.05;;
77099;SDS011;66602;48.922;2.414;2023-03-14T15:11:02;1.20;;;0.90;;
77099;SDS011;66602;48.922;2.414;2023-03-14T15:13:28;1.33;;;1.10;;
77099;SDS011;66602;48.922;2.414;2023-03-14T15:15:53;1.70;;;1.30;;
77099;SDS011;66602;48.922;2.414;2023-03-14T15:18:21;1.40;;;1.30;;
77099;SDS011;66602;48.922;2.414;2023-03-14T15:20:48;2.13;;;1.02;;
77099;SDS011;66602;48.922;2.414;2023-03-14T15:23:15;1.10;;;0.80;;
77099;SDS011;66602;48.922;2.414;2023-03-14T15:25:43;2.55;;;1.00;;
77099;SDS011;66602;48.922;2.414;2023-03-14T15:28:16;2.55;;;1.38;;
77099;SDS011;66602;48.922;2.414;2023-03-14T15:30:44;2.05;;;1.00;;
77099;SDS011;66602;48.922;2.414;2023-03-14T15:33:10;0.77;;;0.77;;
77099;SDS011;66602;48.922;2.414;2023-03-14T15:35:36;1.52;;;1.10;;
77099;SDS011;66602;48.922;2.414;2023-03-14T15:38:02;1.30;;;0.80;;
77099;SDS011;66602;48.922;2.414;2023-03-14T15:40:28;6.57;;;1.17;;
77099;SDS011;66602;48.922;2.414;2023-03-14T15:42:54;1.77;;;0.95;;
77099;SDS011;66602;48.922;2.414;2023-03-14T15:45:20;1.75;;;1.00;;
77099;SDS011;66602;48.922;2.414;2023-03-14T15:47:45;8.25;;;1.00;;
77099;SDS011;66602;48.922;2.414;2023-03-14T15:50:11;3.30;;;1.15;;
77099;SDS011;66602;48.922;2.414;2023-03-14T15:52:36;3.30;;;1.27;;
77099;SDS011;66602;48.922;2.414;2023-03-14T15:55:02;2.10;;;1.38;;
77099;SDS011;66602;48.922;2.414;2023-03-14T15:57:28;3.55;;;1.75;;
77099;SDS011;66602;48.922;2.414;2023-03-14T15:59:53;6.80;;;2.17;;